Time;durP1;ratioP1;P1;durP2;ratioP2;P2;SDS_P1;SDS_P2;PMS_P1;PMS_P2;Temp;Humidity;BMP_temperature;BMP_pressure;BME280_temperature;BME280_humidity;BME280_pressure;Samples;Min_cycle;Max_cycle;Signal;HPM_P1;HPM_P2
2022/08/13 00:02:16;;;;;;;14.15;8.10;;;;;;;15.64;66.91;100724.13;4768012;29;20051;-80
2022/08/13 00:05:03;;;;;;;14.57;7.97;;;;;;;15.49;66.85;100716.50;4777545;29;20048;-79
2022/08/13 00:07:30;;;;;;;14.55;8.38;;;;;;;15.52;66.77;100719.94;4751422;30;20138;-80
2022/08/13 00:09:58;;;;;;;13.32;7.88;;;;;;;15.54;66.86;100722.53;4734511;30;20036;-80
2022/08/13 00:15:19;;;;;;;15.15;7.97;;;;;;;15.24;67.23;100690.63;4767989;30;20044;-80
2022/08/13 00:17:49;;;;;;;;;;;;;;;15.46;67.38;100732.28;4762295;30;20051;-80
2022/08/13 00:20:21;;;;;;;12.85;8.25;;;;;;;15.41;67.43;100732.34;4760422;30;19925;-81
2022/08/13 00:22:47;;;;;;;;;;;;;;;15.38;67.55;100729.75;4731228;30;20508;-80
2022/08/13 00:25:14;;;;;;;12.40;7.88;;;;;;;15.28;67.35;100718.53;4731417;30;19937;-79
2022/08/13 00:27:47;;;;;;;12.70;8.25;;;;;;;15.30;67.44;100721.13;4759920;30;21533;-80
2022/08/13 00:30:15;;;;;;;15.13;7.88;;;;;;;15.27;67.61;100716.81;4743287;30;20160;-80
2022/08/13 00:32:45;;;;;;;12.75;8.43;;;;;;;15.20;68.06;100704.66;4742673;30;20150;-78
2022/08/13 00:35:13;;;;;;;20.88;8.93;;;;;;;15.27;67.96;100721.16;4731308;30;20424;-81
2022/08/13 00:37:41;;;;;;;13.75;7.82;;;;;;;15.24;68.14;100716.84;4728580;30;20130;-80
2022/08/13 00:40:11;;;;;;;16.40;8.25;;;;;;;15.30;67.89;100727.25;4760676;30;20168;-79
2022/08/13 00:42:38;;;;;;;15.63;8.25;;;;;;;15.17;68.08;100705.56;4742731;30;20048;-80
2022/08/13 00:45:06;;;;;;;11.55;8.50;;;;;;;15.11;67.84;100694.31;4728613;30;20105;-80
2022/08/13 00:50:17;;;;;;;16.20;9.73;;;;;;;15.13;68.11;100700.38;4759820;30;20048;-80
2022/08/13 00:52:43;;;;;;;15.15;8.55;;;;;;;15.07;67.86;100696.09;4759983;30;20048;-80
2022/08/13 00:55:16;;;;;;;14.18;8.32;;;;;;;15.21;67.86;100716.88;4765283;30;20043;-81
2022/08/13 00:57:44;;;;;;;10.63;7.35;;;;;;;15.11;68.06;100710.88;4749186;30;20546;-80
2022/08/13 01:00:15;;;;;;;14.85;8.45;;;;;;;14.99;68.16;100690.09;4733150;30;20078;-80
2022/08/13 01:02:50;;;;;;;12.93;8.18;;;;;;;14.99;68.43;100693.56;4731345;30;20063;-80
2022/08/13 01:05:17;;;;;;;13.68;8.23;;;;;;;15.00;68.41;100697.94;4743313;30;20060;-80
2022/08/13 01:07:43;;;;;;;13.45;7.88;;;;;;;15.12;68.43;100714.34;4731886;30;20169;-80
2022/08/13 01:10:14;;;;;;;11.85;7.80;;;;;;;15.02;68.58;100704.00;4747097;30;20048;-81
2022/08/13 01:12:42;;;;;;;12.00;7.95;;;;;;;15.01;68.71;100709.25;4759877;30;20178;-80
2022/08/13 01:15:13;;;;;;;18.23;8.05;;;;;;;14.98;68.85;100699.69;4758511;30;20051;-80
2022/08/13 01:17:41;;;;;;;13.30;7.75;;;;;;;15.03;69.18;100705.75;4733204;30;20160;-81
2022/08/13 01:20:21;;;;;;;17.75;8.45;;;;;;;14.94;69.09;100692.75;4762659;30;20052;-82
2022/08/13 01:22:52;;;;;;;14.25;7.90;;;;;;;14.97;69.22;100695.34;4749185;30;20044;-79
2022/08/13 01:25:24;;;;;;;15.23;8.40;;;;;;;15.00;69.33;100708.41;4746027;30;20515;-80
2022/08/13 01:27:52;;;;;;;13.80;7.70;;;;;;;15.00;69.47;100703.16;4763436;30;20047;-82
2022/08/13 01:30:21;;;;;;;13.07;8.00;;;;;;;14.98;69.65;100702.31;4748957;30;20047;-81
2022/08/13 01:32:48;;;;;;;17.27;8.68;;;;;;;14.85;69.38;100687.66;4762195;30;20136;-80
2022/08/13 01:35:18;;;;;;;15.15;8.10;;;;;;;14.83;69.71;100689.41;4762067;30;20413;-80
2022/08/13 01:37:53;;;;;;;19.58;7.93;;;;;;;14.87;69.82;100693.75;4763020;30;20113;-81
2022/08/13 01:40:20;;;;;;;16.75;7.60;;;;;;;14.94;69.83;100700.63;4761035;30;20055;-79
2022/08/13 01:42:48;;;;;;;15.85;7.68;;;;;;;14.95;69.81;100701.50;4778148;30;20043;-79
2022/08/13 01:45:15;;;;;;;16.35;7.47;;;;;;;14.81;69.70;100685.94;4748725;30;20094;-80
2022/08/13 01:50:30;;;;;;;16.13;7.95;;;;;;;14.79;69.54;100682.47;4748547;30;20527;-78
2022/08/13 01:53:05;;;;;;;11.70;7.55;;;;;;;14.86;69.14;100700.72;4731615;30;20054;-79
2022/08/13 01:55:39;;;;;;;16.73;7.97;;;;;;;14.84;69.66;100696.38;4744138;30;20051;-78
2022/08/13 01:58:18;;;;;;;15.38;8.02;;;;;;;14.77;69.35;100690.38;4731741;30;20050;-79
2022/08/13 02:00:48;;;;;;;11.27;7.72;;;;;;;14.86;69.39;100710.34;4760757;30;20052;-78
2022/08/13 02:03:17;;;;;;;21.65;8.20;;;;;;;14.79;69.43;100690.34;4731405;30;20417;-80
2022/08/13 02:05:44;;;;;;;44.75;10.73;;;;;;;14.88;69.60;100698.09;4743178;30;20055;-80
2022/08/13 02:08:12;;;;;;;16.08;7.78;;;;;;;14.81;69.63;100691.19;4743938;30;20048;-80
2022/08/13 02:10:41;;;;;;;10.45;7.50;;;;;;;14.87;69.26;100697.22;4762364;30;20040;-80
2022/08/13 02:13:11;;;;;;;14.23;7.57;;;;;;;14.95;69.66;100702.34;4746167;30;20058;-80
2022/08/13 02:15:39;;;;;;;9.43;7.15;;;;;;;14.89;69.60;100679.72;4745299;30;20043;-79
2022/08/13 02:18:05;;;;;;;10.25;7.55;;;;;;;14.96;69.63;100680.50;4731495;30;20113;-79
2022/08/13 02:20:34;;;;;;;13.63;7.57;;;;;;;15.03;69.65;100689.16;4732939;30;20085;-79
2022/08/13 02:23:01;;;;;;;15.75;8.02;;;;;;;15.06;69.73;100692.59;4744922;30;20095;-79
2022/08/13 02:25:29;;;;;;;16.80;8.05;;;;;;;15.03;69.57;100692.66;4762005;30;20138;-79
2022/08/13 02:27:56;;;;;;;11.48;7.13;;;;;;;15.08;69.77;100689.94;4763098;30;20063;-80
2022/08/13 02:30:27;;;;;;;10.52;7.75;;;;;;;15.14;69.60;100691.63;4758278;30;20130;-79
2022/08/13 02:32:54;;;;;;;17.58;7.10;;;;;;;15.04;69.73;100676.03;4747073;30;20056;-80
2022/08/13 02:35:21;;;;;;;12.55;7.00;;;;;;;15.15;69.56;100690.72;4733319;30;20732;-80
2022/08/13 02:37:50;;;;;;;9.82;7.30;;;;;;;15.21;69.49;100699.41;4745944;30;20053;-79
2022/08/13 02:43:02;;;;;;;11.90;7.53;;;;;;;15.23;69.51;100683.63;4761128;30;20051;-77
2022/08/13 02:45:28;;;;;;;12.48;7.13;;;;;;;15.35;69.51;100688.69;4744864;30;20501;-79
2022/08/13 02:47:55;;;;;;;14.95;7.38;;;;;;;15.44;69.28;100692.97;4730043;30;20113;-77
2022/08/13 02:50:21;;;;;;;14.05;7.80;;;;;;;15.50;69.30;100692.00;4741736;30;20127;-80
2022/08/13 02:52:52;;;;;;;14.60;8.48;;;;;;;15.53;69.21;100689.34;4748329;30;20433;-80
2022/08/13 02:55:19;;;;;;;8.65;7.47;;;;;;;15.58;69.00;100690.09;4742922;30;20054;-81
2022/08/13 02:57:50;;;;;;;16.83;8.10;;;;;;;15.58;68.84;100676.13;4733085;30;20043;-78
2022/08/13 03:00:19;;;;;;;14.05;8.48;;;;;;;15.79;68.70;100701.16;4744126;30;20181;-80
2022/08/13 03:02:46;;;;;;;8.88;7.47;;;;;;;15.85;68.66;100703.69;4759828;30;20055;-80
2022/08/13 03:05:17;;;;;;;10.75;8.07;;;;;;;15.84;68.34;100686.19;4729122;30;20062;-81
2022/08/13 03:07:46;;;;;;;12.07;7.65;;;;;;;16.01;68.28;100706.06;4761693;30;20048;-81
2022/08/13 03:10:14;;;;;;;10.27;7.22;;;;;;;16.08;68.42;100699.84;4762533;30;20044;-80
2022/08/13 03:12:45;;;;;;;8.77;6.82;;;;;;;16.18;68.36;100701.41;4761155;30;20075;-78
2022/08/13 03:15:13;;;;;;;11.88;6.88;;;;;;;16.18;68.25;100674.28;4742161;30;20044;-80
2022/08/13 03:17:40;;;;;;;11.52;7.97;;;;;;;16.39;68.18;100700.16;4769748;30;20054;-79
2022/08/13 03:20:16;;;;;;;13.63;7.60;;;;;;;16.39;67.77;100679.13;4767861;30;20047;-80
2022/08/13 03:22:48;;;;;;;13.65;8.55;;;;;;;16.58;67.79;100691.06;4760429;30;20063;-81
2022/08/13 03:25:18;;;;;;;16.23;7.57;;;;;;;16.67;67.66;100694.38;4748925;30;20117;-79
2022/08/13 03:27:45;;;;;;;12.60;7.90;;;;;;;16.78;67.63;100694.16;4762890;30;20082;-81
2022/08/13 03:30:13;;;;;;;14.63;7.70;;;;;;;16.93;67.50;100703.47;4751883;30;20040;-80
2022/08/13 03:32:41;;;;;;;9.52;7.57;;;;;;;17.04;67.28;100698.03;4756266;30;20051;-78
2022/08/13 03:35:13;;;;;;;17.23;8.63;;;;;;;17.14;67.15;100693.44;4771044;30;20052;-80
2022/08/13 03:37:40;;;;;;;;;;;;;;;17.38;66.85;100699.91;4771762;30;20047;-80
2022/08/13 03:40:07;;;;;;;13.82;8.85;;;;;;;17.48;66.48;100703.19;4755798;30;19925;-82
2022/08/13 03:42:34;;;;;;;12.93;8.52;;;;;;;17.49;66.25;100677.75;4775277;30;20452;-79
2022/08/13 03:45:03;;;;;;;12.50;8.05;;;;;;;17.73;66.33;100686.81;4760124;30;20052;-79
2022/08/13 03:47:30;;;;;;;16.42;8.30;;;;;;;17.80;66.17;100672.59;4743009;30;20110;-80
2022/08/13 03:50:01;;;;;;;14.57;8.85;;;;;;;18.06;65.78;100682.50;4745857;30;20040;-84
2022/08/13 03:52:30;;;;;;;15.40;8.80;;;;;;;18.33;65.78;100695.84;4737017;30;20075;-78
2022/08/13 03:54:57;;;;;;;14.45;8.05;;;;;;;18.55;65.64;100686.47;4762673;30;20044;-82
2022/08/13 03:57:24;;;;;;;16.40;8.88;;;;;;;18.75;65.32;100685.91;4777160;30;20235;-83
2022/08/13 03:59:50;;;;;;;18.92;9.60;;;;;;;18.91;65.09;100679.28;4772868;30;20516;-79
2022/08/13 04:02:17;;;;;;;15.48;8.90;;;;;;;19.22;64.62;100688.94;4776558;30;20071;-81
2022/08/13 04:04:47;;;;;;;18.33;9.45;;;;;;;19.38;64.30;100670.88;4789767;30;20059;-80
2022/08/13 04:07:15;;;;;;;16.23;8.98;;;;;;;19.47;63.83;100656.50;4758223;30;20066;-81
2022/08/13 04:09:42;;;;;;;12.43;9.40;;;;;;;19.91;63.38;100681.50;4770392;30;20073;-80
2022/08/13 04:12:12;;;;;;;17.63;9.93;;;;;;;20.15;62.73;100682.44;4785945;30;20047;-79
2022/08/13 04:14:40;;;;;;;15.85;10.15;;;;;;;20.33;62.36;100678.28;4778455;30;20066;-80
2022/08/13 04:17:10;;;;;;;16.92;10.07;;;;;;;20.59;61.94;100679.97;4775450;30;20048;-85
2022/08/13 04:19:38;;;;;;;14.88;10.15;;;;;;;20.92;61.35;100687.63;4740812;30;20414;-79
2022/08/13 04:22:06;;;;;;;19.08;10.27;;;;;;;21.05;61.07;100661.56;4769699;30;20044;-80
2022/08/13 04:24:33;;;;;;;17.05;10.43;;;;;;;21.31;60.42;100664.94;4777141;30;20051;-81
2022/08/13 04:27:04;;;;;;;15.48;9.80;;;;;;;21.62;59.86;100670.81;4756812;30;20079;-79
2022/08/13 04:29:30;;;;;;;19.42;9.90;;;;;;;21.78;58.97;100650.72;4739613;30;20125;-80
2022/08/13 04:32:01;;;;;;;19.23;10.57;;;;;;;21.99;58.08;100663.09;4739070;30;20162;-79
2022/08/13 04:34:29;;;;;;;19.77;10.13;;;;;;;22.14;57.70;100667.75;4770548;30;20401;-83
2022/08/13 04:36:56;;;;;;;13.05;9.52;;;;;;;22.34;56.97;100666.00;4754864;30;20504;-82
2022/08/13 04:39:24;;;;;;;12.55;8.43;;;;;;;22.49;56.82;100661.84;4754542;30;20052;-81
2022/08/13 04:41:50;;;;;;;10.88;8.38;;;;;;;22.51;55.79;100636.97;4754914;30;20067;-79
2022/08/13 04:44:16;;;;;;;17.60;8.88;;;;;;;22.85;55.31;100648.66;4756037;30;20047;-84
2022/08/13 04:46:42;;;;;;;11.05;7.88;;;;;;;23.17;54.64;100654.25;4774858;30;20047;-80
2022/08/13 04:49:11;;;;;;;11.68;6.93;;;;;;;23.26;53.78;100630.88;4739789;30;20051;-80
2022/08/13 04:51:38;;;;;;;14.07;7.18;;;;;;;23.61;53.05;100652.16;4769992;30;20072;-81
2022/08/13 04:54:05;;;;;;;11.55;7.60;;;;;;;23.81;52.44;100656.47;4763501;30;20051;-80
2022/08/13 04:56:33;;;;;;;10.90;6.95;;;;;;;23.94;51.73;100642.53;4782942;30;20072;-80
2022/08/13 04:59:00;;;;;;;10.68;6.97;;;;;;;23.99;50.93;100654.69;4757748;30;20134;-81
2022/08/13 05:01:27;;;;;;;13.85;7.13;;;;;;;24.05;50.85;100633.13;4718281;30;20506;-82
2022/08/13 05:03:53;;;;;;;14.45;6.93;;;;;;;24.15;50.38;100612.22;4738360;30;20129;-82
2022/08/13 05:06:19;;;;;;;13.18;7.30;;;;;;;24.33;50.05;100613.03;4738062;30;20071;-80
2022/08/13 05:08:46;;;;;;;14.10;7.75;;;;;;;24.74;49.96;100640.16;4723426;30;20168;-83
2022/08/13 05:11:18;;;;;;;9.38;7.75;;;;;;;24.86;49.53;100633.28;4732750;30;20244;-83
2022/08/13 05:13:46;;;;;;;10.82;7.57;;;;;;;24.99;49.17;100614.84;4736606;30;20044;-81
2022/08/13 05:16:17;;;;;;;9.88;5.88;;;;;;;25.09;48.14;100605.38;4751600;30;20581;-81
2022/08/13 05:18:55;;;;;;;5.53;4.75;;;;;;;25.42;47.63;100631.88;4735919;30;20142;-85
2022/08/13 05:21:26;;;;;;;7.28;4.78;;;;;;;25.49;47.05;100604.91;4734135;30;20066;-80
2022/08/13 05:23:53;;;;;;;7.50;4.40;;;;;;;25.84;45.86;100637.44;4704885;30;20513;-81
2022/08/13 05:26:31;;;;;;;8.75;4.30;;;;;;;25.91;45.35;100623.75;4734929;30;20720;-83
2022/08/13 05:29:07;;;;;;;5.07;4.05;;;;;;;26.35;44.62;100643.34;4721445;30;20044;-82
2022/08/13 05:31:35;;;;;;;7.38;4.15;;;;;;;26.86;43.86;100594.78;4735161;30;20048;-84
2022/08/13 05:34:05;;;;;;;7.88;5.00;;;;;;;28.39;41.80;100619.25;4751891;30;20105;-85
2022/08/13 05:36:32;;;;;;;9.52;4.43;;;;;;;29.86;39.61;100609.44;4733571;30;20071;-85
2022/08/13 05:38:58;;;;;;;12.63;4.82;;;;;;;31.20;37.46;100623.91;4741475;30;20044;-83
2022/08/13 05:41:26;;;;;;;11.68;4.90;;;;;;;32.15;36.24;100581.78;4740556;30;20052;-82
2022/08/13 05:43:52;;;;;;;12.35;5.20;;;;;;;33.40;34.72;100610.16;4712148;30;20075;-85
2022/08/13 05:46:19;;;;;;;9.30;5.22;;;;;;;34.47;32.75;100623.53;4711299;30;20052;-81
2022/08/13 05:48:56;;;;;;;8.63;4.40;;;;;;;35.05;30.25;100622.34;4741833;30;20048;-82
2022/08/13 05:51:29;;;;;;;10.32;4.95;;;;;;;35.77;29.46;100607.88;4740948;30;20040;-83
2022/08/13 05:53:59;;;;;;;10.20;4.50;;;;;;;36.50;28.34;100618.47;4742531;30;20119;-83
2022/08/13 05:56:27;;;;;;;8.02;4.60;;;;;;;36.85;27.28;100608.41;4728213;30;20043;-84
2022/08/13 05:58:53;;;;;;;7.30;4.70;;;;;;;37.34;26.33;100623.91;4725517;30;20056;-83
2022/08/13 06:04:14;;;;;;;8.68;5.32;;;;;;;38.32;25.52;100611.16;4726675;30;20110;-85
2022/08/13 06:06:42;;;;;;;12.95;5.45;;;;;;;39.15;24.59;100616.16;4718664;30;20044;-83
2022/08/13 06:09:21;;;;;;;7.88;5.95;;;;;;;39.87;23.52;100594.94;4719843;30;20051;-86
2022/08/13 06:11:49;;;;;;;8.25;6.35;;;;;;;40.81;22.33;100605.16;4728819;30;20044;-84
2022/08/13 06:14:31;;;;;;;10.57;4.85;;;;;;;41.75;21.03;100602.41;4730685;30;20055;-83
2022/08/13 06:16:58;;;;;;;10.88;4.95;;;;;;;42.52;20.48;100617.97;4714407;30;20055;-80
2022/08/13 06:19:26;;;;;;;7.25;5.35;;;;;;;43.23;19.38;100613.06;4711623;30;20052;-85
2022/08/13 06:21:55;;;;;;;9.35;4.57;;;;;;;43.87;18.95;100618.91;4748448;30;20108;-86
2022/08/13 06:24:23;;;;;;;9.43;4.45;;;;;;;44.47;17.93;100606.94;4755331;30;20058;-86
2022/08/13 06:26:51;;;;;;;7.85;4.63;;;;;;;45.64;17.20;100616.63;4775907;30;20092;-82
2022/08/13 06:29:19;;;;;;;4.43;3.55;;;;;;;46.22;16.56;100606.25;4733164;30;20044;-85
2022/08/13 06:31:49;;;;;;;8.35;4.68;;;;;;;46.73;15.90;100609.56;4738886;30;20051;-83
2022/08/13 06:34:15;;;;;;;6.45;4.85;;;;;;;47.21;15.37;100609.72;4755085;30;20134;-83
2022/08/13 06:36:41;;;;;;;8.32;4.72;;;;;;;47.96;14.46;100585.22;4706299;30;20161;-84
2022/08/13 06:39:08;;;;;;;4.70;4.20;;;;;;;48.57;13.95;100630.84;4741150;30;20074;-84
2022/08/13 06:41:34;;;;;;;7.15;4.00;;;;;;;48.43;13.70;100631.16;4731992;30;20078;-82
2022/08/13 06:44:07;;;;;;;8.60;4.10;;;;;;;48.96;13.11;100603.38;4732122;30;20059;-83
2022/08/13 06:46:33;;;;;;;7.88;5.10;;;;;;;49.42;12.00;100634.53;4744346;30;20051;-83
2022/08/13 06:49:03;;;;;;;9.20;4.70;;;;;;;49.47;12.36;100630.19;4722793;30;20055;-85
2022/08/13 06:51:32;;;;;;;6.10;4.28;;;;;;;49.86;12.21;100624.66;4731560;30;20079;-84
2022/08/13 06:53:58;;;;;;;6.20;4.07;;;;;;;50.42;11.70;100612.59;4738148;30;20059;-84
2022/08/13 06:56:26;;;;;;;5.25;4.60;;;;;;;50.75;11.34;100619.00;4724854;30;20045;-85
2022/08/13 06:58:55;;;;;;;9.25;3.78;;;;;;;51.05;10.96;100593.50;4729926;30;20045;-85
2022/08/13 07:01:24;;;;;;;7.32;4.15;;;;;;;51.41;11.52;100625.38;4734844;30;20064;-87
2022/08/13 07:03:52;;;;;;;4.30;3.53;;;;;;;51.75;11.05;100625.00;4768272;30;20055;-87
2022/08/13 07:06:26;;;;;;;5.63;4.18;;;;;;;52.25;10.83;100636.59;4755865;30;20064;-87
2022/08/13 07:09:08;;;;;;;;;;;;;;;;;;;;;
2022/08/13 07:11:37;;;;;;;5.30;3.72;;;;;;;52.72;9.76;100634.75;4763165;30;20053;-83
2022/08/13 07:14:03;;;;;;;6.32;3.45;;;;;;;53.03;9.74;100620.88;4762172;30;20623;-84
2022/08/13 07:16:32;;;;;;;5.95;3.00;;;;;;;53.42;9.44;100625.00;4758922;30;20147;-81
2022/08/13 07:19:00;;;;;;;4.75;3.08;;;;;;;53.47;8.64;100605.53;4729936;30;20043;-83
2022/08/13 07:21:29;;;;;;;3.58;3.28;;;;;;;53.77;9.00;100617.66;4729119;30;20138;-82
2022/08/13 07:23:56;;;;;;;3.55;3.25;;;;;;;54.23;8.33;100619.41;4744548;30;20059;-83
2022/08/13 07:26:27;;;;;;;4.20;3.45;;;;;;;54.88;8.20;100618.38;4720064;30;20051;-82
2022/08/13 07:28:53;;;;;;;5.00;3.42;;;;;;;53.82;8.35;100617.63;4748854;30;20050;-84
2022/08/13 07:31:32;;;;;;;5.82;3.05;;;;;;;53.43;8.67;100601.66;4759463;30;20070;-82
2022/08/13 07:34:01;;;;;;;3.03;2.63;;;;;;;52.98;8.36;100605.06;4757546;30;20075;-83
2022/08/13 07:36:32;;;;;;;4.03;2.80;;;;;;;51.90;8.92;100597.34;4765475;30;20048;-86
2022/08/13 07:39:01;;;;;;;3.22;2.90;;;;;;;52.70;9.07;100604.47;4745506;30;20513;-84
2022/08/13 07:41:27;;;;;;;;;;;;;;;53.82;8.51;100623.19;4762815;30;20133;-83
2022/08/13 07:44:05;;;;;;;5.38;3.00;;;;;;;54.17;8.10;100568.53;4763110;30;19994;-83
2022/08/13 07:46:42;;;;;;;3.30;2.70;;;;;;;55.16;7.35;100603.91;4763901;30;20105;-86
2022/08/13 07:49:10;;;;;;;4.72;2.97;;;;;;;56.14;6.71;100602.72;4750355;30;20420;-84
2022/08/13 07:51:37;;;;;;;4.40;3.00;;;;;;;56.86;6.66;100620.31;4748901;30;20109;-87
2022/08/13 07:54:05;;;;;;;3.00;2.78;;;;;;;56.77;6.44;100591.41;4760564;30;20055;-84
2022/08/13 07:56:32;;;;;;;3.78;2.60;;;;;;;56.56;6.78;100600.16;4745368;30;20051;-83
2022/08/13 07:59:12;;;;;;;7.70;3.60;;;;;;;56.01;6.28;100589.53;4715205;30;20389;-83
2022/08/13 08:01:49;;;;;;;4.43;2.78;;;;;;;55.74;6.45;100599.34;4779570;29;20101;-83
2022/08/13 08:04:18;;;;;;;4.10;2.80;;;;;;;55.12;7.01;100600.03;4752556;30;20052;-82
2022/08/13 08:06:45;;;;;;;6.75;3.13;;;;;;;54.79;6.95;100573.63;4746794;30;20624;-84
2022/08/13 08:09:19;;;;;;;7.80;3.58;;;;;;;55.00;6.46;100581.78;4746469;30;20072;-84
2022/08/13 08:14:31;;;;;;;4.55;2.80;;;;;;;56.19;6.05;100585.88;4769194;30;20122;-82
2022/08/13 08:17:01;;;;;;;4.50;2.92;;;;;;;56.43;6.54;100587.78;4745558;30;20039;-84
2022/08/13 08:19:30;;;;;;;6.13;3.10;;;;;;;56.58;6.20;100586.72;4761089;30;20515;-84
2022/08/13 08:21:59;;;;;;;3.55;3.10;;;;;;;56.49;6.34;100583.75;4749811;30;20403;-82
2022/08/13 08:24:28;;;;;;;3.90;3.13;;;;;;;56.66;5.76;100582.38;4744232;30;20143;-87
2022/08/13 08:26:55;;;;;;;4.32;3.60;;;;;;;56.47;6.36;100572.06;4736610;30;20151;-84
2022/08/13 08:29:22;;;;;;;6.57;3.15;;;;;;;56.06;6.12;100583.88;4746722;30;20111;-83
2022/08/13 08:31:49;;;;;;;5.05;2.92;;;;;;;55.15;6.73;100574.38;4759401;30;20050;-82
2022/08/13 08:34:19;;;;;;;3.45;2.80;;;;;;;54.54;6.44;100574.63;4731960;30;20064;-82
2022/08/13 08:36:45;;;;;;;3.35;3.08;;;;;;;54.05;7.12;100562.47;4759184;30;20044;-84
2022/08/13 08:44:44;;;;;;;4.15;2.63;;;;;;;52.33;7.80;100550.06;4757118;30;20082;-83
2022/08/13 08:47:11;;;;;;;3.63;2.70;;;;;;;52.12;7.63;100540.84;4760106;30;20511;-84
2022/08/13 08:49:39;;;;;;;2.90;2.67;;;;;;;52.46;7.73;100543.13;4760038;30;20051;-84
2022/08/13 08:52:09;;;;;;;3.30;3.10;;;;;;;52.36;7.43;100552.28;4728023;30;20048;-82
2022/08/13 08:54:37;;;;;;;3.10;2.88;;;;;;;52.38;7.96;100568.63;4743836;30;20123;-82
2022/08/13 08:57:04;;;;;;;2.83;2.63;;;;;;;52.60;7.61;100554.53;4741679;30;20047;-84
2022/08/13 08:59:42;;;;;;;4.40;3.00;;;;;;;52.84;7.70;100527.00;4761555;30;20135;-83
2022/08/13 09:02:22;;;;;;;4.50;2.90;;;;;;;53.70;7.56;100562.38;4731767;30;20064;-83
2022/08/13 09:04:53;;;;;;;3.45;3.15;;;;;;;54.09;7.07;100559.94;4736300;30;20082;-81
2022/08/13 09:07:21;;;;;;;3.40;3.10;;;;;;;54.82;7.23;100560.25;4744962;30;20588;-84
2022/08/13 09:09:50;;;;;;;4.78;3.10;;;;;;;54.74;7.13;100545.81;4731801;30;20044;-81
2022/08/13 09:12:16;;;;;;;3.20;2.78;;;;;;;54.20;7.21;100551.22;4758876;30;20535;-81
2022/08/13 09:14:44;;;;;;;5.05;2.90;;;;;;;53.25;7.72;100548.31;4764373;30;20632;-83
2022/08/13 09:17:12;;;;;;;3.40;3.13;;;;;;;52.56;8.03;100550.63;4744932;30;20048;-83
2022/08/13 09:19:41;;;;;;;7.35;2.90;;;;;;;52.09;7.85;100536.69;4770150;30;20055;-86
2022/08/13 09:22:07;;;;;;;4.65;3.00;;;;;;;52.66;7.89;100550.63;4734029;30;20476;-85
2022/08/13 09:24:39;;;;;;;3.53;2.88;;;;;;;52.42;7.84;100537.28;4769608;30;20044;-84
2022/08/13 09:27:06;;;;;;;4.30;3.03;;;;;;;52.13;8.09;100514.75;4751583;30;20044;-84
2022/08/13 09:29:33;;;;;;;4.35;3.00;;;;;;;51.74;8.09;100546.56;4753829;30;20066;-86
2022/08/13 09:32:05;;;;;;;8.50;3.15;;;;;;;50.46;8.45;100514.97;4725444;30;20091;-85
2022/08/13 09:34:31;;;;;;;3.85;2.50;;;;;;;49.67;9.08;100508.84;4758423;30;20578;-84
2022/08/13 09:36:58;;;;;;;2.67;2.47;;;;;;;49.34;9.60;100526.38;4769386;30;20059;-82
2022/08/13 09:39:52;;;;;;;3.40;2.70;;;;;;;48.98;9.40;100522.00;4790513;29;20047;-84
2022/08/13 09:42:29;;;;;;;3.13;2.80;;;;;;;48.14;10.29;100537.34;4734666;30;20066;-84
2022/08/13 09:44:58;;;;;;;4.43;2.70;;;;;;;47.61;10.74;100537.38;4756837;30;20131;-85
2022/08/13 09:47:25;;;;;;;5.15;2.65;;;;;;;48.18;10.00;100521.13;4740163;30;20052;-84
2022/08/13 09:49:55;;;;;;;4.63;2.72;;;;;;;48.36;9.77;100511.84;4740007;30;20036;-86
2022/08/13 09:52:21;;;;;;;5.82;2.70;;;;;;;49.09;9.71;100509.19;4751532;30;20059;-84
2022/08/13 09:54:50;;;;;;;4.82;2.95;;;;;;;50.33;9.00;100487.72;4775083;30;20035;-83
2022/08/13 09:57:21;;;;;;;5.80;2.92;;;;;;;51.61;8.40;100522.09;4771557;30;20098;-81
2022/08/13 09:59:51;;;;;;;4.97;3.33;;;;;;;52.78;8.02;100517.00;4775234;30;20052;-82
2022/08/13 10:02:18;;;;;;;3.05;2.85;;;;;;;53.77;7.94;100528.69;4742643;30;20581;-85
2022/08/13 10:04:47;;;;;;;4.38;3.03;;;;;;;53.88;7.34;100527.50;4756267;30;20078;-83
2022/08/13 10:07:14;;;;;;;4.35;2.90;;;;;;;52.66;8.13;100503.44;4724019;30;20084;-84
2022/08/13 10:09:40;;;;;;;6.55;3.25;;;;;;;51.50;8.20;100516.50;4755423;30;20051;-85
2022/08/13 10:12:09;;;;;;;3.75;2.97;;;;;;;50.01;8.49;100507.88;4724421;30;20051;-83
2022/08/13 10:14:38;;;;;;;7.07;2.97;;;;;;;48.50;9.54;100510.44;4774919;30;20047;-83
2022/08/13 10:17:04;;;;;;;5.25;2.83;;;;;;;46.83;10.31;100511.88;4779730;30;20052;-83
2022/08/13 10:19:31;;;;;;;6.43;2.95;;;;;;;46.52;10.86;100522.94;4826957;24;20068;-83
2022/08/13 10:21:57;;;;;;;4.45;3.30;;;;;;;47.23;10.69;100516.69;4772765;30;20051;-84
2022/08/13 10:24:23;;;;;;;3.10;2.70;;;;;;;47.63;10.40;100482.88;4779111;30;20147;-84
2022/08/13 10:26:49;;;;;;;4.45;3.05;;;;;;;47.62;9.99;100461.06;4781271;30;20466;-85
2022/08/13 10:29:15;;;;;;;4.20;2.97;;;;;;;47.72;9.90;100507.28;4751400;30;21021;-85
2022/08/13 10:31:41;;;;;;;6.18;3.20;;;;;;;46.71;10.78;100503.59;4764377;30;20043;-83
2022/08/13 10:34:07;;;;;;;3.28;2.80;;;;;;;45.62;10.95;100508.00;4767458;30;20059;-85
2022/08/13 10:36:42;;;;;;;3.22;2.88;;;;;;;44.46;11.68;100470.88;4765416;30;20385;-85
2022/08/13 10:39:08;;;;;;;3.35;2.55;;;;;;;43.70;12.44;100507.06;4779811;30;20307;-84
2022/08/13 10:41:34;;;;;;;4.15;3.05;;;;;;;42.72;12.40;100486.72;4779939;30;20043;-85
2022/08/13 10:44:00;;;;;;;5.70;3.00;;;;;;;41.64;13.67;100469.19;4780456;30;20050;-84
2022/08/13 10:46:31;;;;;;;5.03;3.00;;;;;;;41.00;14.30;100504.63;4784218;30;20060;-83
2022/08/13 10:48:58;;;;;;;6.07;3.85;;;;;;;40.10;15.03;100472.25;4786083;30;20526;-83
2022/08/13 10:51:29;;;;;;;7.13;3.40;;;;;;;39.68;15.54;100499.16;4777984;29;20066;-85
2022/08/13 10:53:55;;;;;;;;;;;;;;;39.13;15.98;100507.53;4768505;30;20043;-83
2022/08/13 10:56:22;;;;;;;5.70;3.15;;;;;;;38.63;16.16;100511.66;4780416;30;19928;-84
2022/08/13 10:58:49;;;;;;;5.55;3.30;;;;;;;38.02;16.77;100510.47;4779398;29;20051;-82
2022/08/13 11:01:15;;;;;;;4.05;3.00;;;;;;;37.41;16.91;100486.53;4762204;30;20044;-86
2022/08/13 11:03:45;;;;;;;3.13;2.83;;;;;;;37.03;17.22;100479.00;4780186;30;20065;-82
2022/08/13 11:06:12;;;;;;;3.80;3.50;;;;;;;36.67;17.66;100459.50;4780221;30;20109;-83
2022/08/13 11:08:39;;;;;;;4.45;2.65;;;;;;;36.56;18.36;100496.72;4766149;30;20542;-83
2022/08/13 11:11:09;;;;;;;4.32;2.90;;;;;;;36.37;18.05;100487.03;4771708;29;20057;-82
2022/08/13 11:13:37;;;;;;;7.10;3.17;;;;;;;36.09;18.08;100475.59;4773441;30;20036;-82
2022/08/13 11:16:06;;;;;;;3.95;3.00;;;;;;;35.75;19.01;100452.97;4786247;30;20067;-83
2022/08/13 11:18:32;;;;;;;5.00;2.90;;;;;;;35.52;19.26;100469.78;4785537;30;20069;-82
2022/08/13 11:21:08;;;;;;;8.57;3.47;;;;;;;35.11;19.31;100446.00;4757239;30;20086;-86
2022/08/13 11:23:35;;;;;;;3.90;2.67;;;;;;;34.77;19.88;100438.63;4757638;30;20225;-84
2022/08/13 11:26:02;;;;;;;5.82;3.20;;;;;;;34.72;20.29;100484.19;4787832;30;20054;-88
2022/08/13 11:28:28;;;;;;;5.30;3.13;;;;;;;34.30;20.18;100439.69;4785726;30;20500;-85
2022/08/13 11:30:55;;;;;;;4.13;3.35;;;;;;;34.40;20.79;100466.63;4794956;30;20042;-85
2022/08/13 11:33:24;;;;;;;4.38;3.38;;;;;;;34.06;21.10;100418.69;4768177;30;20043;-80
2022/08/13 11:35:52;;;;;;;3.83;3.42;;;;;;;34.20;21.20;100472.16;4751631;30;20055;-82
2022/08/13 11:38:21;;;;;;;6.00;3.75;;;;;;;34.17;21.34;100485.13;4801069;29;20047;-85
2022/08/13 11:40:54;;;;;;;6.82;3.60;;;;;;;33.60;21.51;100426.72;4793319;30;20046;-81
2022/08/13 11:43:27;;;;;;;5.35;3.40;;;;;;;33.40;21.37;100434.06;4795758;29;20041;-81
2022/08/13 11:45:54;;;;;;;5.07;3.75;;;;;;;33.57;21.79;100487.22;4811445;29;20051;-81
2022/08/13 11:48:21;;;;;;;6.28;3.50;;;;;;;33.12;22.04;100431.25;4778510;30;20047;-83
2022/08/13 11:50:47;;;;;;;5.68;3.20;;;;;;;33.03;21.86;100420.34;4787595;30;20062;-82
2022/08/13 11:53:14;;;;;;;6.80;3.42;;;;;;;33.02;22.04;100469.00;4746498;30;20126;-82
2022/08/13 11:55:41;;;;;;;8.85;3.45;;;;;;;32.62;23.21;100445.75;4774279;30;20070;-83
2022/08/13 11:58:08;;;;;;;5.93;3.30;;;;;;;32.52;22.48;100451.97;4772650;30;20086;-80